EST,Max TemperatureF,Mean TemperatureF,Min TemperatureF,Max Dew PointF,MeanDew PointF,Min DewpointF,Max Humidity, Mean Humidity, Min Humidity, Max Sea Level PressureIn, Mean Sea Level PressureIn, Min Sea Level PressureIn, Max VisibilityMiles, Mean VisibilityMiles, Min VisibilityMiles, Max Wind SpeedMPH, Mean Wind SpeedMPH, Max Gust SpeedMPH,PrecipitationIn, CloudCover, Events, WindDirDegrees
2011-12-1,55,40,26,30,24,16,100,59,21,30.32,30.24,30.11,10,10,10,6,1,,0.03,0,,355
2011-12-2,64,45,26,30,20,0,100,55,7,30.46,30.34,30.30,10,10,5,9,1,,0.00,0,,231
2011-12-3,55,42,30,32,29,25,93,60,36,30.65,30.58,30.52,10,10,10,6,2,,0.00,0,,15
2011-12-4,57,42,28,39,34,27,100,76,44,30.54,30.47,30.37,10,8,3,7,1,,0.00,0,,173
2011-12-5,64,50,37,55,44,36,100,79,55,30.37,30.27,30.16,10,10,7,5,0,,0.00,7,,21
2011-12-6,66,63,60,64,61,59,100,93,88,30.14,30.05,29.96,10,8,0,8,3,,0.25,8,Rain,202
2011-12-7,68,56,44,66,60,37,100,92,76,29.92,29.70,29.42,10,8,3,16,7,32,0.80,8,Rain,199
2011-12-8,51,43,35,30,21,16,81,44,26,30.29,30.16,29.87,10,10,10,8,2,,0.00,0,,270
2011-12-9,53,40,26,36,30,25,100,67,33,30.32,30.27,30.20,10,10,10,7,1,,0.00,0,,204
2011-12-10,51,42,33,37,27,19,100,59,30,30.46,30.32,30.22,10,10,10,10,1,16,0.00,1,,348
2011-12-11,46,36,26,25,17,12,93,52,25,30.67,30.58,30.50,10,10,10,7,2,,0.00,0,,16
2011-12-12,46,35,24,32,26,21,100,74,42,30.59,30.53,30.45,10,10,10,4,0,,0.00,0,,30
2011-12-13,59,42,26,37,30,27,100,71,34,30.45,30.40,30.35,10,10,7,5,0,,0.00,0,,20
2011-12-14,53,46,39,39,33,25,100,61,35,30.43,30.36,30.28,10,10,10,5,0,,0.00,7,,168
2011-12-15,69,56,42,52,42,30,81,58,40,30.27,30.10,29.96,10,10,10,15,5,25,0.00,1,,208
2011-12-16,62,52,42,52,40,16,100,67,17,30.21,30.11,29.96,10,9,4,9,4,17,0.36,4,Rain,244
2011-12-17,44,37,30,43,35,28,100,84,57,30.23,30.18,30.14,10,8,3,7,1,,0.00,6,Rain,42
2011-12-18,48,38,28,30,26,19,100,69,32,30.32,30.25,30.20,10,10,7,8,1,,0.00,3,,256
2011-12-19,57,40,24,30,26,21,100,64,25,30.30,30.22,30.13,10,10,10,12,3,20,0.00,1,,208
2011-12-20,59,52,44,52,35,27,82,53,38,30.18,30.12,30.09,10,10,10,9,5,,0.00,3,,213
2011-12-21,64,58,53,64,59,52,100,96,82,30.09,29.96,29.86,10,9,3,12,6,18,0.20,6,Rain,201
2011-12-22,69,62,55,63,59,55,100,90,60,30.10,30.01,29.92,10,6,0,8,2,,0.50,7,Fog-Rain-Thunderstorm,214
2011-12-23,66,58,48,64,42,34,100,58,39,30.23,30.05,29.76,10,10,5,16,6,24,0.00,6,Rain,273
2011-12-24,50,41,32,36,29,19,100,64,30,30.44,30.35,30.23,10,10,10,12,2,16,0.00,0,,341
2011-12-25,55,42,28,39,31,21,100,73,26,30.38,30.25,30.07,10,8,4,15,3,20,0.00,0,,214
2011-12-26,53,43,33,28,22,19,70,43,26,30.36,30.25,30.09,10,10,10,6,3,,0.00,0,,276
2011-12-27,55,46,37,55,40,27,100,79,57,30.22,29.78,29.46,10,10,5,21,4,32,0.46,4,Rain,199
2011-12-28,51,44,37,30,23,12,70,44,22,30.01,29.81,29.60,10,10,10,13,5,23,0.00,2,,242
2011-12-29,50,38,26,30,26,19,100,65,32,30.06,30.00,29.96,10,10,10,12,2,,0.00,0,,199
2011-12-30,60,45,30,43,32,27,93,56,27,30.05,29.94,29.86,10,10,10,15,4,18,0.00,2,,187
2011-12-31,62,50,35,48,38,30,100,59,30,30.12,29.95,29.84,10,10,10,10,5,20,0.00,2,,231